Jacky L O'neal — WDG3892 — position and weather

sailwx.info

Track history (hours):
 
Tides and Currents Weather Stations Pressure Air Temp Water Temp Dewpoint Dewpoint Depression Visibility Wind Speed Wind Dir Waves Ship Positions

Jacky L O'neal

Owner: American Commercial Lines LLC, Jeffersonville, IN. More information available from US FCC via Universal Licensing System and Coast Guard Vessel Documentation Center.

Last reported at 2016-Apr-30 09:28 UTC. Time now 2016-May-02 05:59 UTC.
Position N 32°40' W 091°07'.

Length 70 m.

Type: Tow > 200 m length. MMSI: 367530760.

Date/timePositionNaut miles runAvg speedWind from/ knotsBaromVisibWave heightAir tempDewpointWater temp
2016-Apr-30 09:28N 32°40' W 091°07'3 3.7
2016-Apr-30 08:33N 32°38' W 091°09'5 4.8
2016-Apr-30 07:33N 32°34' W 091°06'5 4.8
2016-Apr-30 06:33N 32°29' W 091°07'5 4.6
2016-Apr-30 05:33N 32°26' W 091°03'4 3.9
2016-Apr-30 04:33N 32°23' W 090°60'2 2.4
2016-Apr-30 03:33N 32°21' W 090°59'4 4.3
2016-Apr-30 02:33N 32°20' W 090°54'4 4.0
2016-Apr-30 01:33N 32°17' W 090°57'4 4.1
2016-Apr-30 00:33N 32°13' W 090°59'4 4.4
2016-Apr-29 23:33N 32°09' W 091°00'4 3.3
2016-Apr-29 22:30N 32°08' W 091°04'2 2.6
2016-Apr-29 21:33N 32°06' W 091°05'4 4.3
2016-Apr-29 20:32N 32°01' W 091°04'21 4.2
2016-Apr-29 15:27N 31°46' W 091°22'106 2.5
2016-Apr-27 20:29N 30°03' W 090°51'  
2016-Apr-24 01:27N 31°57' W 091°12'9 8.1
2016-Apr-24 00:17N 32°03' W 091°03'5 7.0
2016-Apr-23 23:33N 32°08' W 091°06'6 5.9
2016-Apr-23 22:33N 32°11' W 090°60'9 8.6
2016-Apr-23 21:33N 32°18' W 090°55'6 6.2
2016-Apr-23 20:33N 32°23' W 091°00'8 7.9
2016-Apr-23 19:34N 32°28' W 091°07'9 8.3
2016-Apr-23 18:32N 32°37' W 091°09'  
Track history (hours):
 
Tides and Currents Weather Stations Pressure Air Temp Water Temp Dewpoint Dewpoint Depression Visibility Wind Speed Wind Dir Waves Ship Positions

Jacky L O'neal

Owner: American Commercial Lines LLC, Jeffersonville, IN. More information available from US FCC via Universal Licensing System and Coast Guard Vessel Documentation Center.

Last reported at 2016-Apr-30 09:28 UTC. Time now 2016-May-02 05:59 UTC.
Position N 32°40' W 091°07'.

Length 70 m.

Type: Tow > 200 m length. MMSI: 367530760.

Date/timePositionNaut miles runAvg speedWind from/ knotsBaromVisibWave heightAir tempDewpointWater temp
2016-Apr-30 09:28N 32°40' W 091°07'3 3.7
2016-Apr-30 08:33N 32°38' W 091°09'5 4.8
2016-Apr-30 07:33N 32°34' W 091°06'5 4.8
2016-Apr-30 06:33N 32°29' W 091°07'5 4.6
2016-Apr-30 05:33N 32°26' W 091°03'4 3.9
2016-Apr-30 04:33N 32°23' W 090°60'2 2.4
2016-Apr-30 03:33N 32°21' W 090°59'4 4.3
2016-Apr-30 02:33N 32°20' W 090°54'4 4.0
2016-Apr-30 01:33N 32°17' W 090°57'4 4.1
2016-Apr-30 00:33N 32°13' W 090°59'4 4.4
2016-Apr-29 23:33N 32°09' W 091°00'4 3.3
2016-Apr-29 22:30N 32°08' W 091°04'2 2.6
2016-Apr-29 21:33N 32°06' W 091°05'4 4.3
2016-Apr-29 20:32N 32°01' W 091°04'21 4.2
2016-Apr-29 15:27N 31°46' W 091°22'106 2.5
2016-Apr-27 20:29N 30°03' W 090°51'  
2016-Apr-24 01:27N 31°57' W 091°12'9 8.1
2016-Apr-24 00:17N 32°03' W 091°03'5 7.0
2016-Apr-23 23:33N 32°08' W 091°06'6 5.9
2016-Apr-23 22:33N 32°11' W 090°60'9 8.6
2016-Apr-23 21:33N 32°18' W 090°55'6 6.2
2016-Apr-23 20:33N 32°23' W 091°00'8 7.9
2016-Apr-23 19:34N 32°28' W 091°07'9 8.3
2016-Apr-23 18:32N 32°37' W 091°09'  

Dump ship's entire track history